createdAt,value
2022-10-11T19:46:02.543Z,96767.44
2022-10-11T19:47:10.805Z,96773.47
2022-10-11T19:48:13.471Z,96771.78
2022-10-11T19:49:21.726Z,96767.34
2022-10-11T19:50:23.938Z,96773.34
2022-10-11T19:51:31.015Z,96773.34
2022-10-11T19:52:35.800Z,96776.81
2022-10-11T19:53:39.148Z,96771.50
2022-10-11T19:54:43.905Z,96777.56
2022-10-11T19:55:51.390Z,96769.66
2022-10-11T19:56:59.672Z,96770.59
2022-10-11T19:58:07.320Z,96776.63
2022-10-11T19:59:15.557Z,96774.84
2022-10-11T20:00:20.660Z,96773.09
2022-10-11T20:01:31.100Z,96771.34
2022-10-11T20:02:34.454Z,96766.16
2022-10-11T20:03:40.343Z,96769.81
2022-10-11T20:04:52.442Z,96769.81
2022-10-11T20:05:55.142Z,96774.22
2022-10-11T20:07:00.090Z,96769.03
2022-10-11T20:08:02.350Z,96775.09
2022-10-11T20:10:34.084Z,96775.16
2022-10-11T20:11:39.163Z,96774.38
2022-10-11T20:12:46.010Z,96771.94
2022-10-11T20:13:49.166Z,96776.97
2022-10-11T20:14:54.086Z,96778.69
2022-10-11T20:15:57.648Z,96775.38
2022-10-11T20:17:05.188Z,96777.06
2022-10-11T20:18:07.416Z,96784.03
2022-10-11T20:19:12.174Z,96787.53
2022-10-11T20:20:14.920Z,96784.03
2022-10-11T20:21:22.252Z,96779.81
2022-10-11T20:22:24.816Z,96779.97
2022-10-11T20:23:31.198Z,96783.47
2022-10-11T20:24:36.539Z,96786.16
2022-10-11T20:25:41.436Z,96786.91
2022-10-11T20:26:46.488Z,96783.47
2022-10-11T20:27:51.462Z,96779.19
2022-10-11T20:28:57.898Z,96783.47
2022-10-11T20:30:04.994Z,96786.06
2022-10-11T20:31:12.468Z,96786.22
2022-10-11T20:32:20.078Z,96784.44
2022-10-11T20:33:26.669Z,96786.31
2022-10-11T20:34:31.939Z,96787.34
2022-10-11T20:35:34.416Z,96784.88
2022-10-11T20:36:39.706Z,96788.41
2022-10-11T20:37:42.059Z,96785.81
2022-10-11T20:38:48.802Z,96780.66
2022-10-11T20:39:50.963Z,96784.59
2022-10-11T20:40:55.783Z,96784.84
2022-10-11T20:42:02.440Z,96781.44
2022-10-11T20:43:04.786Z,96780.75
2022-10-11T20:44:13.350Z,96787.50
2022-10-11T20:45:18.303Z,96793.47
2022-10-11T20:46:23.068Z,96786.78
2022-10-11T20:47:31.107Z,96788.56
2022-10-11T20:48:34.733Z,96780.75
2022-10-11T20:49:39.661Z,96783.47
2022-10-11T20:50:47.474Z,96787.00
2022-10-11T20:51:52.697Z,96782.72
2022-10-11T20:52:55.005Z,96792.16
2022-10-11T20:54:01.994Z,96785.31
2022-10-11T20:55:07.974Z,96787.00
2022-10-11T20:56:12.630Z,96787.97
2022-10-11T20:57:17.629Z,96781.09
2022-10-11T20:58:23.232Z,96780.28
2022-10-11T20:59:28.463Z,96784.69
2022-10-11T21:00:30.668Z,96787.84
2022-10-11T21:01:38.231Z,96788.69
2022-10-11T21:02:43.348Z,96789.69
2022-10-11T21:03:51.648Z,96797.25
2022-10-11T21:04:56.648Z,96787.09
2022-10-11T21:06:02.213Z,96792.28
2022-10-11T21:07:09.234Z,96788.81
2022-10-11T21:08:14.130Z,96785.31
2022-10-11T21:09:20.220Z,96782.78
2022-10-11T21:10:22.504Z,96793.19
2022-10-11T21:11:27.956Z,96790.53
2022-10-11T21:12:30.156Z,96792.34
2022-10-11T21:13:35.144Z,96792.34
2022-10-11T21:14:42.860Z,96790.66
2022-10-11T21:15:45.175Z,96797.50
2022-10-11T21:16:49.872Z,96795.78
2022-10-11T21:17:54.602Z,96790.59
2022-10-11T21:19:01.588Z,96792.16
2022-10-11T21:20:06.116Z,96792.19
2022-10-11T21:21:12.772Z,96787.00
2022-10-11T21:22:17.753Z,96788.69
2022-10-11T21:23:22.668Z,96784.34
2022-10-11T21:24:26.046Z,96779.97
2022-10-11T21:25:35.710Z,96783.38
2022-10-11T21:26:40.873Z,96785.97
2022-10-11T21:27:46.095Z,96783.38
2022-10-11T21:28:51.217Z,96773.94
2022-10-11T21:29:53.565Z,96779.06
2022-10-11T21:30:58.704Z,96779.19
2022-10-11T21:32:05.008Z,96784.53
2022-10-11T21:33:09.930Z,96784.53
2022-10-11T21:34:14.975Z,96785.47
2022-10-11T21:35:17.715Z,96779.34
2022-10-11T21:36:24.902Z,96781.09
2022-10-11T21:37:27.284Z,96775.06
2022-10-11T21:38:32.376Z,96783.75
2022-10-11T21:39:34.702Z,96781.03
2022-10-11T21:40:41.966Z,96781.16
2022-10-11T21:41:44.513Z,96775.97
2022-10-11T21:42:52.631Z,96783.75
2022-10-11T21:43:54.870Z,96775.22
2022-10-11T21:44:59.665Z,96781.94
2022-10-11T21:46:11.678Z,96776.75
2022-10-11T21:47:17.675Z,96781.81
2022-10-11T21:48:28.176Z,96777.44
2022-10-11T21:49:30.541Z,96774.84
2022-10-11T21:50:35.644Z,96771.41
2022-10-11T21:51:38.428Z,96771.34
2022-10-11T21:52:43.357Z,96776.59
2022-10-11T21:53:45.806Z,96774.09
2022-10-11T21:54:50.731Z,96771.41
2022-10-11T21:55:57.343Z,96762.69
2022-10-11T21:57:02.245Z,96767.13
2022-10-11T21:58:06.297Z,96769.59
2022-10-11T21:59:12.534Z,96760.84
2022-10-11T22:00:15.043Z,96769.59
2022-10-11T22:01:20.614Z,96761.84
2022-10-11T22:02:24.704Z,96759.97
2022-10-11T22:03:33.899Z,96765.16
2022-10-11T22:04:37.994Z,96761.63
2022-10-11T22:05:48.021Z,96772.09
2022-10-11T22:06:53.379Z,96763.31
2022-10-11T22:07:55.530Z,96765.16
2022-10-11T22:09:00.769Z,96767.75
2022-10-11T22:10:03.205Z,96771.34
2022-10-11T22:11:11.885Z,96767.97
2022-10-11T22:12:15.667Z,96771.34
2022-10-11T22:13:20.558Z,96772.25
2022-10-11T22:14:22.947Z,96767.88
2022-10-11T22:15:27.866Z,96762.75
2022-10-11T22:16:30.345Z,96764.38
2022-10-11T22:17:35.685Z,96766.06
2022-10-11T22:18:43.116Z,96763.31
2022-10-11T22:19:48.168Z,96771.88
2022-10-11T22:20:51.038Z,96768.75
2022-10-11T22:21:56.281Z,96761.16
2022-10-11T22:22:58.773Z,96768.16
2022-10-11T22:24:03.802Z,96760.38
2022-10-11T22:25:07.296Z,96765.66
2022-10-11T22:26:14.505Z,96766.56
2022-10-11T22:27:19.701Z,96759.69
2022-10-11T22:28:21.864Z,96763.91
2022-10-11T22:29:29.445Z,96765.72
2022-10-11T22:30:34.697Z,96757.06
2022-10-11T22:31:42.389Z,96756.00
2022-10-11T22:32:44.767Z,96759.63
2022-10-11T22:33:55.521Z,96757.91
2022-10-11T22:34:57.717Z,96756.09
2022-10-11T22:36:04.035Z,96757.91
2022-10-11T22:37:08.558Z,96750.22
2022-10-11T22:38:13.406Z,96753.69
2022-10-11T22:39:15.635Z,96755.56
2022-10-11T22:40:20.791Z,96751.25
2022-10-11T22:41:23.525Z,96753.94
2022-10-11T22:42:28.514Z,96752.22
2022-10-11T22:43:30.664Z,96752.38
2022-10-11T22:44:35.349Z,96754.97
2022-10-11T22:45:37.688Z,96749.78
2022-10-11T22:46:42.630Z,96749.91
2022-10-11T22:47:44.857Z,96751.59
2022-10-11T22:48:52.323Z,96750.69
2022-10-11T22:49:54.659Z,96754.28
2022-10-11T22:50:59.684Z,96753.44
2022-10-11T22:52:01.894Z,96748.38
2022-10-11T22:53:08.217Z,96760.50
2022-10-11T22:54:13.578Z,96753.72
2022-10-11T22:55:21.316Z,96746.97
2022-10-11T22:56:23.493Z,96750.34
2022-10-11T22:57:28.470Z,96747.66
2022-10-11T22:58:30.895Z,96746.78
2022-10-11T22:59:35.915Z,96747.81
2022-10-11T23:00:37.980Z,96754.81
2022-10-11T23:01:44.942Z,96747.13
2022-10-11T23:02:47.124Z,96746.19
2022-10-11T23:03:54.759Z,96747.91
2022-10-11T23:04:58.437Z,96746.97
2022-10-11T23:06:03.665Z,96746.13
2022-10-11T23:07:05.866Z,96750.50
2022-10-11T23:08:11.434Z,96745.44
2022-10-11T23:09:13.952Z,96749.84
2022-10-11T23:10:19.761Z,96744.56
2022-10-11T23:11:22.178Z,96744.66
2022-10-11T23:12:28.841Z,96746.41
2022-10-11T23:13:30.913Z,96752.44
2022-10-11T23:14:37.840Z,96745.56
2022-10-11T23:15:40.339Z,96747.31
2022-10-11T23:16:45.054Z,96740.44
2022-10-11T23:17:47.379Z,96750.00
2022-10-11T23:18:59.949Z,96749.06
2022-10-11T23:20:02.391Z,96748.09
2022-10-11T23:21:08.509Z,96742.06
2022-10-11T23:22:10.753Z,96748.03
2022-10-11T23:23:16.830Z,96753.00
2022-10-11T23:24:19.179Z,96751.34
2022-10-11T23:25:23.967Z,96747.13
2022-10-11T23:26:26.038Z,96750.63
2022-10-11T23:27:31.840Z,96751.53
2022-10-11T23:28:34.547Z,96745.50
2022-10-11T23:29:41.056Z,96744.56
2022-10-11T23:30:43.229Z,96751.47
2022-10-11T23:31:48.268Z,96747.94
2022-10-11T23:32:50.379Z,96740.25
2022-10-11T23:33:58.345Z,96743.72
2022-10-11T23:35:00.734Z,96746.97
2022-10-11T23:36:05.857Z,96749.50
2022-10-11T23:37:10.261Z,96748.66
2022-10-11T23:38:15.191Z,96748.66
2022-10-11T23:39:17.499Z,96748.66
2022-10-11T23:40:25.284Z,96746.81
2022-10-11T23:41:29.507Z,96744.31
2022-10-11T23:42:34.460Z,96739.19
2022-10-11T23:43:36.867Z,96743.69
2022-10-11T23:44:41.769Z,96746.28
2022-10-11T23:45:44.159Z,96743.72
2022-10-11T23:46:52.638Z,96740.34
2022-10-11T23:47:59.064Z,96735.88
2022-10-11T23:49:06.971Z,96739.50
2022-10-11T23:50:12.214Z,96737.75
2022-10-11T23:51:17.628Z,96744.56
2022-10-11T23:52:22.972Z,96742.94
2022-10-11T23:53:27.990Z,96737.00
2022-10-11T23:54:30.412Z,96732.50
2022-10-11T23:55:36.758Z,96736.09
2022-10-11T23:56:38.963Z,96738.00
2022-10-11T23:57:44.004Z,96733.69
2022-10-11T23:58:46.434Z,96727.84
2022-10-11T23:59:56.419Z,96735.63
